sensor_id;sensor_type;location;lat;lon;timestamp;pressure;altitude;pressure_sealevel;temperature;humidity
51249;BME280;39642;47.556;18.728;2023-07-29T00:02:10;99194.88;;;24.88;50.52
51249;BME280;39642;47.556;18.728;2023-07-29T00:04:36;99199.31;;;24.88;50.54
51249;BME280;39642;47.556;18.728;2023-07-29T00:07:02;99194.88;;;24.88;50.48
51249;BME280;39642;47.556;18.728;2023-07-29T00:09:28;99186.88;;;24.88;50.50
51249;BME280;39642;47.556;18.728;2023-07-29T00:11:54;99189.53;;;24.88;50.50
51249;BME280;39642;47.556;18.728;2023-07-29T00:14:19;99197.53;;;24.88;50.45
51249;BME280;39642;47.556;18.728;2023-07-29T00:16:45;99186.88;;;24.88;50.50
51249;BME280;39642;47.556;18.728;2023-07-29T00:19:12;99192.22;;;24.88;50.47
51249;BME280;39642;47.556;18.728;2023-07-29T00:21:38;99195.72;;;24.89;50.49
51249;BME280;39642;47.556;18.728;2023-07-29T00:24:04;99191.34;;;24.88;50.47
51249;BME280;39642;47.556;18.728;2023-07-29T00:26:29;99194.88;;;24.88;50.45
51249;BME280;39642;47.556;18.728;2023-07-29T00:28:56;99192.22;;;24.88;50.47
51249;BME280;39642;47.556;18.728;2023-07-29T00:31:22;99193.16;;;24.87;50.48
51249;BME280;39642;47.556;18.728;2023-07-29T00:33:48;99195.81;;;24.87;50.46
51249;BME280;39642;47.556;18.728;2023-07-29T00:36:13;99185.19;;;24.87;50.44
51249;BME280;39642;47.556;18.728;2023-07-29T00:38:39;99187.00;;;24.87;50.44
51249;BME280;39642;47.556;18.728;2023-07-29T00:41:05;99186.00;;;24.88;50.41
51249;BME280;39642;47.556;18.728;2023-07-29T00:43:32;99183.50;;;24.86;50.46
51249;BME280;39642;47.556;18.728;2023-07-29T00:45:59;99193.16;;;24.87;50.46
51249;BME280;39642;47.556;18.728;2023-07-29T00:48:25;99188.81;;;24.86;50.49
51249;BME280;39642;47.556;18.728;2023-07-29T00:50:52;99185.31;;;24.86;50.42
51249;BME280;39642;47.556;18.728;2023-07-29T00:53:18;99186.16;;;24.86;50.44
51249;BME280;39642;47.556;18.728;2023-07-29T00:55:44;99175.63;;;24.85;50.41
51249;BME280;39642;47.556;18.728;2023-07-29T00:58:10;99180.97;;;24.85;50.45
51249;BME280;39642;47.556;18.728;2023-07-29T01:00:36;99179.13;;;24.85;50.41
51249;BME280;39642;47.556;18.728;2023-07-29T01:03:02;99178.28;;;24.85;50.40
51249;BME280;39642;47.556;18.728;2023-07-29T01:05:41;99184.47;;;24.85;50.42
51249;BME280;39642;47.556;18.728;2023-07-29T01:11:17;99178.41;;;24.83;50.35
51249;BME280;39642;47.556;18.728;2023-07-29T01:14:05;99186.28;;;24.85;50.33
51249;BME280;39642;47.556;18.728;2023-07-29T01:16:42;99190.78;;;24.84;50.28
51249;BME280;39642;47.556;18.728;2023-07-29T01:19:20;99186.41;;;24.83;50.27
51249;BME280;39642;47.556;18.728;2023-07-29T01:21:54;99180.13;;;24.84;50.24
51249;BME280;39642;47.556;18.728;2023-07-29T01:24:20;99182.78;;;24.84;50.22
51249;BME280;39642;47.556;18.728;2023-07-29T01:26:46;99182.78;;;24.84;50.22
51249;BME280;39642;47.556;18.728;2023-07-29T01:29:12;99177.59;;;24.83;50.19
51249;BME280;39642;47.556;18.728;2023-07-29T01:31:43;99180.13;;;24.84;50.18
51249;BME280;39642;47.556;18.728;2023-07-29T01:34:17;99179.41;;;24.82;50.16
51249;BME280;39642;47.556;18.728;2023-07-29T01:36:48;99187.41;;;24.82;50.17
51249;BME280;39642;47.556;18.728;2023-07-29T01:39:16;99186.56;;;24.82;50.16
51249;BME280;39642;47.556;18.728;2023-07-29T01:41:43;99185.69;;;24.81;50.14
51249;BME280;39642;47.556;18.728;2023-07-29T01:44:11;99186.56;;;24.82;50.13
51249;BME280;39642;47.556;18.728;2023-07-29T01:46:38;99191.03;;;24.81;50.10
51249;BME280;39642;47.556;18.728;2023-07-29T01:49:03;99184.84;;;24.81;50.08
51249;BME280;39642;47.556;18.728;2023-07-29T01:51:29;99191.88;;;24.82;50.05
51249;BME280;39642;47.556;18.728;2023-07-29T01:53:55;99187.53;;;24.81;50.04
51249;BME280;39642;47.556;18.728;2023-07-29T01:56:21;99191.03;;;24.81;50.08
51249;BME280;39642;47.556;18.728;2023-07-29T01:58:47;99195.50;;;24.81;50.03
51249;BME280;39642;47.556;18.728;2023-07-29T02:01:13;99190.19;;;24.81;50.03
51249;BME280;39642;47.556;18.728;2023-07-29T02:03:39;99188.34;;;24.81;50.00
51249;BME280;39642;47.556;18.728;2023-07-29T02:06:05;99188.34;;;24.81;50.03
51249;BME280;39642;47.556;18.728;2023-07-29T02:08:31;99186.69;;;24.80;50.02
51249;BME280;39642;47.556;18.728;2023-07-29T02:10:56;99191.03;;;24.81;50.03
51249;BME280;39642;47.556;18.728;2023-07-29T02:13:22;99186.56;;;24.82;50.02
51249;BME280;39642;47.556;18.728;2023-07-29T02:15:48;99184.03;;;24.80;50.00
51249;BME280;39642;47.556;18.728;2023-07-29T02:18:14;99185.69;;;24.81;50.02
51249;BME280;39642;47.556;18.728;2023-07-29T02:20:40;99184.03;;;24.80;49.99
51249;BME280;39642;47.556;18.728;2023-07-29T02:23:06;99177.03;;;24.79;50.02
51249;BME280;39642;47.556;18.728;2023-07-29T02:25:35;99190.19;;;24.81;50.03
51249;BME280;39642;47.556;18.728;2023-07-29T02:28:01;99192.13;;;24.79;50.02
51249;BME280;39642;47.556;18.728;2023-07-29T02:30:29;99190.34;;;24.79;50.03
51249;BME280;39642;47.556;18.728;2023-07-29T02:32:54;99181.47;;;24.79;50.03
51249;BME280;39642;47.556;18.728;2023-07-29T02:35:20;99185.97;;;24.78;50.04
51249;BME280;39642;47.556;18.728;2023-07-29T02:37:46;99190.47;;;24.78;50.03
51249;BME280;39642;47.556;18.728;2023-07-29T02:40:12;99185.97;;;24.78;50.00
51249;BME280;39642;47.556;18.728;2023-07-29T02:42:38;99183.31;;;24.78;50.03
51249;BME280;39642;47.556;18.728;2023-07-29T02:45:04;99190.47;;;24.78;49.96
51249;BME280;39642;47.556;18.728;2023-07-29T02:47:30;99194.94;;;24.77;50.01
51249;BME280;39642;47.556;18.728;2023-07-29T02:49:56;99189.62;;;24.77;49.97
51249;BME280;39642;47.556;18.728;2023-07-29T02:52:22;99194.09;;;24.77;49.92
51249;BME280;39642;47.556;18.728;2023-07-29T02:54:48;99192.28;;;24.77;49.95
51249;BME280;39642;47.556;18.728;2023-07-29T02:57:14;99198.44;;;24.78;49.91
51249;BME280;39642;47.556;18.728;2023-07-29T02:59:40;99194.94;;;24.77;49.89
51249;BME280;39642;47.556;18.728;2023-07-29T03:02:05;99189.62;;;24.77;49.86
51249;BME280;39642;47.556;18.728;2023-07-29T03:04:31;99192.28;;;24.77;49.84
51249;BME280;39642;47.556;18.728;2023-07-29T03:06:57;99190.59;;;24.76;49.82
51249;BME280;39642;47.556;18.728;2023-07-29T03:09:25;99191.41;;;24.77;49.79
51249;BME280;39642;47.556;18.728;2023-07-29T03:11:50;99191.56;;;24.75;49.79
51249;BME280;39642;47.556;18.728;2023-07-29T03:14:18;99191.56;;;24.75;49.77
51249;BME280;39642;47.556;18.728;2023-07-29T03:16:44;99194.22;;;24.75;49.78
51249;BME280;39642;47.556;18.728;2023-07-29T03:19:10;99191.56;;;24.75;49.71
51249;BME280;39642;47.556;18.728;2023-07-29T03:21:36;99195.06;;;24.76;49.67
51249;BME280;39642;47.556;18.728;2023-07-29T03:24:03;99194.22;;;24.75;49.64
51249;BME280;39642;47.556;18.728;2023-07-29T03:26:28;99198.72;;;24.75;49.71
51249;BME280;39642;47.556;18.728;2023-07-29T03:28:55;99201.22;;;24.76;49.72
51249;BME280;39642;47.556;18.728;2023-07-29T03:31:21;99203.91;;;24.76;49.69
51249;BME280;39642;47.556;18.728;2023-07-29T03:33:46;99204.03;;;24.75;49.68
51249;BME280;39642;47.556;18.728;2023-07-29T03:36:13;99196.91;;;24.75;49.68
51249;BME280;39642;47.556;18.728;2023-07-29T03:38:39;99195.19;;;24.74;49.67
51249;BME280;39642;47.556;18.728;2023-07-29T03:41:09;99196.91;;;24.75;49.67
51249;BME280;39642;47.556;18.728;2023-07-29T03:43:35;99198.72;;;24.75;49.64
51249;BME280;39642;47.556;18.728;2023-07-29T03:46:01;99197.84;;;24.74;49.68
51249;BME280;39642;47.556;18.728;2023-07-29T03:48:26;99199.56;;;24.75;49.64
51249;BME280;39642;47.556;18.728;2023-07-29T03:50:52;99197.72;;;24.76;49.66
51249;BME280;39642;47.556;18.728;2023-07-29T03:53:18;99202.22;;;24.75;49.60
51249;BME280;39642;47.556;18.728;2023-07-29T03:55:44;99207.53;;;24.75;49.61
51249;BME280;39642;47.556;18.728;2023-07-29T03:58:10;99203.06;;;24.76;49.58
51249;BME280;39642;47.556;18.728;2023-07-29T04:00:36;99203.19;;;24.74;49.61
51249;BME280;39642;47.556;18.728;2023-07-29T04:03:02;99204.88;;;24.75;49.60
51249;BME280;39642;47.556;18.728;2023-07-29T04:05:27;99202.06;;;24.77;49.52
51249;BME280;39642;47.556;18.728;2023-07-29T04:07:54;99200.28;;;24.77;49.46
51249;BME280;39642;47.556;18.728;2023-07-29T04:10:20;99207.28;;;24.78;49.45
51249;BME280;39642;47.556;18.728;2023-07-29T04:12:45;99215.25;;;24.78;49.51
51249;BME280;39642;47.556;18.728;2023-07-29T04:15:11;99214.53;;;24.76;49.52
51249;BME280;39642;47.556;18.728;2023-07-29T04:17:37;99212.72;;;24.77;49.54
51249;BME280;39642;47.556;18.728;2023-07-29T04:20:03;99202.06;;;24.77;49.53
51249;BME280;39642;47.556;18.728;2023-07-29T04:22:29;99205.72;;;24.76;49.58
51249;BME280;39642;47.556;18.728;2023-07-29T04:24:55;99204.03;;;24.75;49.54
51249;BME280;39642;47.556;18.728;2023-07-29T04:27:21;99204.03;;;24.75;49.55
51249;BME280;39642;47.556;18.728;2023-07-29T04:29:47;99205.72;;;24.76;49.55
51249;BME280;39642;47.556;18.728;2023-07-29T04:32:13;99211.88;;;24.76;49.54
51249;BME280;39642;47.556;18.728;2023-07-29T04:34:39;99215.53;;;24.75;49.55
51249;BME280;39642;47.556;18.728;2023-07-29T04:37:05;99208.37;;;24.76;49.55
51249;BME280;39642;47.556;18.728;2023-07-29T04:39:31;99207.53;;;24.75;49.56
51249;BME280;39642;47.556;18.728;2023-07-29T04:41:56;99210.22;;;24.75;49.56
51249;BME280;39642;47.556;18.728;2023-07-29T04:44:23;99213.72;;;24.76;49.54
51249;BME280;39642;47.556;18.728;2023-07-29T04:46:48;99225.19;;;24.76;49.53
51249;BME280;39642;47.556;18.728;2023-07-29T04:49:14;99225.19;;;24.76;49.47
51249;BME280;39642;47.556;18.728;2023-07-29T04:51:40;99218.91;;;24.77;49.50
51249;BME280;39642;47.556;18.728;2023-07-29T04:54:06;99216.25;;;24.77;49.44
51249;BME280;39642;47.556;18.728;2023-07-29T04:56:32;99211.75;;;24.78;49.43
51249;BME280;39642;47.556;18.728;2023-07-29T04:58:58;99206.44;;;24.78;49.41
51249;BME280;39642;47.556;18.728;2023-07-29T05:01:23;99203.78;;;24.78;49.39
51249;BME280;39642;47.556;18.728;2023-07-29T05:03:50;99194.78;;;24.79;49.35
51249;BME280;39642;47.556;18.728;2023-07-29T05:06:17;99202.66;;;24.80;49.34
51249;BME280;39642;47.556;18.728;2023-07-29T05:08:43;99211.47;;;24.81;49.32
51249;BME280;39642;47.556;18.728;2023-07-29T05:11:09;99224.81;;;24.81;49.32
51249;BME280;39642;47.556;18.728;2023-07-29T05:13:34;99237.28;;;24.80;49.34
51249;BME280;39642;47.556;18.728;2023-07-29T05:16:00;99245.16;;;24.82;49.41
51249;BME280;39642;47.556;18.728;2023-07-29T05:18:26;99240.66;;;24.82;49.40
51249;BME280;39642;47.556;18.728;2023-07-29T05:20:52;99249.38;;;24.84;49.40
51249;BME280;39642;47.556;18.728;2023-07-29T05:23:18;99243.91;;;24.86;49.33
51249;BME280;39642;47.556;18.728;2023-07-29T05:25:44;99244.75;;;24.86;49.27
51249;BME280;39642;47.556;18.728;2023-07-29T05:28:09;99249.94;;;24.88;49.39
51249;BME280;39642;47.556;18.728;2023-07-29T05:30:36;99261.28;;;24.90;49.37
51249;BME280;39642;47.556;18.728;2023-07-29T05:33:03;99256.69;;;24.92;49.27
51249;BME280;39642;47.556;18.728;2023-07-29T05:35:30;99255.84;;;24.91;49.22
51249;BME280;39642;47.556;18.728;2023-07-29T05:37:56;99252.19;;;24.92;49.20
51249;BME280;39642;47.556;18.728;2023-07-29T05:40:21;99255.00;;;24.91;49.18
51249;BME280;39642;47.556;18.728;2023-07-29T05:42:48;99252.47;;;24.89;49.25
51249;BME280;39642;47.556;18.728;2023-07-29T05:45:14;99261.44;;;24.88;49.28
51249;BME280;39642;47.556;18.728;2023-07-29T05:47:39;99266.78;;;24.88;49.31
51249;BME280;39642;47.556;18.728;2023-07-29T05:50:06;99260.56;;;24.88;49.34
51249;BME280;39642;47.556;18.728;2023-07-29T05:52:32;99266.88;;;24.87;49.40
51249;BME280;39642;47.556;18.728;2023-07-29T05:54:58;99273.22;;;24.86;49.42
51249;BME280;39642;47.556;18.728;2023-07-29T05:57:24;99280.22;;;24.87;49.45
51249;BME280;39642;47.556;18.728;2023-07-29T05:59:50;99282.16;;;24.85;49.49
51249;BME280;39642;47.556;18.728;2023-07-29T06:02:15;99283.00;;;24.85;49.53
51249;BME280;39642;47.556;18.728;2023-07-29T06:04:41;99275.00;;;24.85;49.49
51249;BME280;39642;47.556;18.728;2023-07-29T06:07:07;99279.38;;;24.86;49.53
51249;BME280;39642;47.556;18.728;2023-07-29T06:09:33;99282.75;;;24.88;49.61
51249;BME280;39642;47.556;18.728;2023-07-29T06:11:59;99279.94;;;24.90;49.80
51249;BME280;39642;47.556;18.728;2023-07-29T06:14:25;99284.16;;;24.92;49.71
51249;BME280;39642;47.556;18.728;2023-07-29T06:16:51;99282.34;;;24.93;49.66
51249;BME280;39642;47.556;18.728;2023-07-29T06:19:18;99289.47;;;24.92;49.77
51249;BME280;39642;47.556;18.728;2023-07-29T06:21:44;99297.47;;;24.92;49.69
51249;BME280;39642;47.556;18.728;2023-07-29T06:24:10;99295.66;;;24.93;49.69
51249;BME280;39642;47.556;18.728;2023-07-29T06:26:36;99295.66;;;24.93;49.90
51249;BME280;39642;47.556;18.728;2023-07-29T06:29:01;99299.06;;;24.95;50.03
51249;BME280;39642;47.556;18.728;2023-07-29T06:31:27;99298.06;;;24.96;50.00
51249;BME280;39642;47.556;18.728;2023-07-29T06:33:53;99295.41;;;24.96;50.21
51249;BME280;39642;47.556;18.728;2023-07-29T06:36:20;99285.47;;;24.98;50.26
51249;BME280;39642;47.556;18.728;2023-07-29T06:38:46;99296.84;;;25.00;50.16
51249;BME280;39642;47.556;18.728;2023-07-29T06:41:12;99292.34;;;25.01;50.10
51249;BME280;39642;47.556;18.728;2023-07-29T06:43:37;99297.41;;;25.04;50.08
51249;BME280;39642;47.556;18.728;2023-07-29T06:46:03;99297.41;;;25.04;50.00
51249;BME280;39642;47.556;18.728;2023-07-29T06:48:29;99301.78;;;25.05;50.03
51249;BME280;39642;47.556;18.728;2023-07-29T06:50:55;99299.81;;;25.07;49.96
51249;BME280;39642;47.556;18.728;2023-07-29T06:53:29;99291.72;;;25.08;49.95
51249;BME280;39642;47.556;18.728;2023-07-29T06:55:55;99288.88;;;25.10;49.80
51249;BME280;39642;47.556;18.728;2023-07-29T06:58:21;99290.59;;;25.11;49.80
51249;BME280;39642;47.556;18.728;2023-07-29T07:00:47;99293.09;;;25.12;49.70
51249;BME280;39642;47.556;18.728;2023-07-29T07:03:13;99298.31;;;25.14;49.75
51249;BME280;39642;47.556;18.728;2023-07-29T07:05:38;99291.03;;;25.16;49.61
51249;BME280;39642;47.556;18.728;2023-07-29T07:08:04;99288.38;;;25.16;49.54
51249;BME280;39642;47.556;18.728;2023-07-29T07:10:30;99289.97;;;25.19;49.47
51249;BME280;39642;47.556;18.728;2023-07-29T07:12:56;99293.56;;;25.18;49.35
51249;BME280;39642;47.556;18.728;2023-07-29T07:15:22;99285.59;;;25.18;49.31
51249;BME280;39642;47.556;18.728;2023-07-29T07:17:48;99280.25;;;25.18;49.32
51249;BME280;39642;47.556;18.728;2023-07-29T07:20:14;99284.72;;;25.17;49.31
51249;BME280;39642;47.556;18.728;2023-07-29T07:22:40;99286.41;;;25.18;49.33
51249;BME280;39642;47.556;18.728;2023-07-29T07:25:06;99283.75;;;25.18;49.33
51249;BME280;39642;47.556;18.728;2023-07-29T07:27:32;99285.47;;;25.19;49.32
51249;BME280;39642;47.556;18.728;2023-07-29T07:29:57;99282.81;;;25.19;49.33
51249;BME280;39642;47.556;18.728;2023-07-29T07:32:23;99279.19;;;25.20;49.33
51249;BME280;39642;47.556;18.728;2023-07-29T07:34:49;99279.03;;;25.22;49.28
51249;BME280;39642;47.556;18.728;2023-07-29T07:37:15;99275.53;;;25.21;49.29
51249;BME280;39642;47.556;18.728;2023-07-29T07:39:41;99275.41;;;25.23;49.26
51249;BME280;39642;47.556;18.728;2023-07-29T07:42:07;99270.91;;;25.23;49.27
51249;BME280;39642;47.556;18.728;2023-07-29T07:44:33;99267.28;;;25.24;49.23
51249;BME280;39642;47.556;18.728;2023-07-29T07:46:59;99263.63;;;25.25;49.18
51249;BME280;39642;47.556;18.728;2023-07-29T07:49:25;99268.84;;;25.27;49.13
51249;BME280;39642;47.556;18.728;2023-07-29T07:51:50;99274.00;;;25.28;49.13
51249;BME280;39642;47.556;18.728;2023-07-29T07:54:16;99271.34;;;25.28;49.07
51249;BME280;39642;47.556;18.728;2023-07-29T07:56:43;99270.37;;;25.29;49.03
51249;BME280;39642;47.556;18.728;2023-07-29T07:59:08;99268.44;;;25.31;49.01
51249;BME280;39642;47.556;18.728;2023-07-29T08:01:35;99262.25;;;25.31;49.01
51249;BME280;39642;47.556;18.728;2023-07-29T08:04:02;99268.44;;;25.31;48.97
51249;BME280;39642;47.556;18.728;2023-07-29T08:06:29;99272.66;;;25.34;48.99
51249;BME280;39642;47.556;18.728;2023-07-29T08:08:56;99265.47;;;25.34;48.95
51249;BME280;39642;47.556;18.728;2023-07-29T08:11:22;99267.91;;;25.38;48.89
51249;BME280;39642;47.556;18.728;2023-07-29T08:13:48;99258.06;;;25.38;48.83
51249;BME280;39642;47.556;18.728;2023-07-29T08:16:14;99257.25;;;25.38;48.82
51249;BME280;39642;47.556;18.728;2023-07-29T08:18:40;99250.91;;;25.39;48.82
51249;BME280;39642;47.556;18.728;2023-07-29T08:21:06;99254.41;;;25.39;48.76
51249;BME280;39642;47.556;18.728;2023-07-29T08:23:34;99256.97;;;25.41;48.77
51249;BME280;39642;47.556;18.728;2023-07-29T08:26:02;99256.13;;;25.40;48.81
51249;BME280;39642;47.556;18.728;2023-07-29T08:28:31;99254.41;;;25.39;48.81
51249;BME280;39642;47.556;18.728;2023-07-29T08:30:58;99255.25;;;25.40;48.80
51249;BME280;39642;47.556;18.728;2023-07-29T08:33:24;99256.97;;;25.41;48.83
51249;BME280;39642;47.556;18.728;2023-07-29T08:35:50;99251.63;;;25.41;48.81
51249;BME280;39642;47.556;18.728;2023-07-29T08:38:16;99249.81;;;25.41;48.74
51249;BME280;39642;47.556;18.728;2023-07-29T08:40:45;99252.47;;;25.41;48.77
51249;BME280;39642;47.556;18.728;2023-07-29T08:43:17;99245.31;;;25.42;48.77
51249;BME280;39642;47.556;18.728;2023-07-29T08:45:44;99241.69;;;25.43;48.72
51249;BME280;39642;47.556;18.728;2023-07-29T08:48:10;99247.00;;;25.43;48.72
51249;BME280;39642;47.556;18.728;2023-07-29T08:50:38;99247.72;;;25.45;48.73
51249;BME280;39642;47.556;18.728;2023-07-29T08:53:04;99244.91;;;25.46;48.69
51249;BME280;39642;47.556;18.728;2023-07-29T08:55:33;99244.78;;;25.48;48.62
51249;BME280;39642;47.556;18.728;2023-07-29T08:58:00;99243.81;;;25.49;48.65
51249;BME280;39642;47.556;18.728;2023-07-29T09:00:27;99245.63;;;25.48;48.63
51249;BME280;39642;47.556;18.728;2023-07-29T09:02:53;99240.28;;;25.48;48.63
51249;BME280;39642;47.556;18.728;2023-07-29T09:05:21;99238.59;;;25.47;48.63
51249;BME280;39642;47.556;18.728;2023-07-29T09:07:47;99235.81;;;25.49;48.62
51249;BME280;39642;47.556;18.728;2023-07-29T09:10:13;99235.81;;;25.49;48.57
51249;BME280;39642;47.556;18.728;2023-07-29T09:12:40;99231.31;;;25.49;48.60
51249;BME280;39642;47.556;18.728;2023-07-29T09:15:06;99225.00;;;25.50;48.54
51249;BME280;39642;47.556;18.728;2023-07-29T09:17:33;99231.31;;;25.49;48.57
51249;BME280;39642;47.556;18.728;2023-07-29T09:19:59;99229.38;;;25.51;48.54
51249;BME280;39642;47.556;18.728;2023-07-29T09:22:26;99228.50;;;25.51;48.59
51249;BME280;39642;47.556;18.728;2023-07-29T09:24:53;99225.84;;;25.51;48.49
51249;BME280;39642;47.556;18.728;2023-07-29T09:27:25;99229.50;;;25.50;48.56
51249;BME280;39642;47.556;18.728;2023-07-29T09:29:53;99227.81;;;25.49;48.54
51249;BME280;39642;47.556;18.728;2023-07-29T09:32:24;99221.63;;;25.48;48.56
51249;BME280;39642;47.556;18.728;2023-07-29T09:34:51;99218.00;;;25.49;48.55
51249;BME280;39642;47.556;18.728;2023-07-29T09:37:20;99219.81;;;25.49;48.55
51249;BME280;39642;47.556;18.728;2023-07-29T09:39:47;99217.16;;;25.49;48.58
51249;BME280;39642;47.556;18.728;2023-07-29T09:42:18;99211.81;;;25.49;48.53
51249;BME280;39642;47.556;18.728;2023-07-29T09:44:44;99217.00;;;25.50;48.53
51249;BME280;39642;47.556;18.728;2023-07-29T09:47:27;99215.34;;;25.49;48.53
51249;BME280;39642;47.556;18.728;2023-07-29T09:49:53;99218.00;;;25.49;48.54
51249;BME280;39642;47.556;18.728;2023-07-29T09:52:20;99215.47;;;25.48;48.53
51249;BME280;39642;47.556;18.728;2023-07-29T09:54:47;99208.44;;;25.47;48.55
51249;BME280;39642;47.556;18.728;2023-07-29T09:57:14;99215.47;;;25.48;48.56
51249;BME280;39642;47.556;18.728;2023-07-29T09:59:40;99205.78;;;25.47;48.58
51249;BME280;39642;47.556;18.728;2023-07-29T10:02:14;99210.25;;;25.46;48.60
51249;BME280;39642;47.556;18.728;2023-07-29T10:04:42;99206.88;;;25.44;48.58
51249;BME280;39642;47.556;18.728;2023-07-29T10:07:09;99210.41;;;25.45;48.60
51249;BME280;39642;47.556;18.728;2023-07-29T10:09:37;99209.53;;;25.44;48.59
51249;BME280;39642;47.556;18.728;2023-07-29T10:12:05;99210.53;;;25.43;48.60
51249;BME280;39642;47.556;18.728;2023-07-29T10:14:32;99207.87;;;25.43;48.61
51249;BME280;39642;47.556;18.728;2023-07-29T10:16:58;99212.38;;;25.43;48.66
51249;BME280;39642;47.556;18.728;2023-07-29T10:19:25;99209.69;;;25.43;48.67
51249;BME280;39642;47.556;18.728;2023-07-29T10:21:56;99208.00;;;25.42;48.69
51249;BME280;39642;47.556;18.728;2023-07-29T10:24:26;99203.66;;;25.41;48.69
51249;BME280;39642;47.556;18.728;2023-07-29T10:26:59;99198.31;;;25.41;48.70
51249;BME280;39642;47.556;18.728;2023-07-29T10:29:30;99208.97;;;25.41;48.73
51249;BME280;39642;47.556;18.728;2023-07-29T10:32:01;99206.31;;;25.41;48.71
51249;BME280;39642;47.556;18.728;2023-07-29T10:34:29;99200.00;;;25.42;48.73
51249;BME280;39642;47.556;18.728;2023-07-29T10:36:56;99201.81;;;25.41;48.75
51249;BME280;39642;47.556;18.728;2023-07-29T10:39:24;99199.16;;;25.41;48.76
51249;BME280;39642;47.556;18.728;2023-07-29T10:41:56;99201.00;;;25.41;48.75
51249;BME280;39642;47.556;18.728;2023-07-29T10:49:46;99198.31;;;25.41;48.73
51249;BME280;39642;47.556;18.728;2023-07-29T10:52:14;99198.19;;;25.42;48.75
51249;BME280;39642;47.556;18.728;2023-07-29T10:54:45;99192.00;;;25.42;48.72
51249;BME280;39642;47.556;18.728;2023-07-29T10:57:15;99193.84;;;25.41;48.74
51249;BME280;39642;47.556;18.728;2023-07-29T10:59:54;99187.66;;;25.41;48.74
51249;BME280;39642;47.556;18.728;2023-07-29T11:02:28;99186.53;;;25.43;48.71
51249;BME280;39642;47.556;18.728;2023-07-29T11:04:55;99190.03;;;25.44;48.63
51249;BME280;39642;47.556;18.728;2023-07-29T11:07:25;99199.75;;;25.45;48.65
51249;BME280;39642;47.556;18.728;2023-07-29T11:09:56;99190.75;;;25.46;48.66
51249;BME280;39642;47.556;18.728;2023-07-29T11:12:42;99188.22;;;25.44;48.67
51249;BME280;39642;47.556;18.728;2023-07-29T11:17:42;99193.56;;;25.44;48.67
51249;BME280;39642;47.556;18.728;2023-07-29T11:20:08;99198.03;;;25.44;48.70
51249;BME280;39642;47.556;18.728;2023-07-29T11:22:36;99199.03;;;25.43;48.71
51249;BME280;39642;47.556;18.728;2023-07-29T11:25:02;99189.34;;;25.42;48.70
51249;BME280;39642;47.556;18.728;2023-07-29T11:27:28;99195.66;;;25.41;48.74
51249;BME280;39642;47.556;18.728;2023-07-29T11:29:58;99194.66;;;25.42;48.74
51249;BME280;39642;47.556;18.728;2023-07-29T11:32:25;99193.00;;;25.41;48.71
51249;BME280;39642;47.556;18.728;2023-07-29T11:34:51;99185.84;;;25.41;48.71
51249;BME280;39642;47.556;18.728;2023-07-29T11:37:17;99190.22;;;25.42;48.69
51249;BME280;39642;47.556;18.728;2023-07-29T11:39:44;99190.88;;;25.44;48.63
51249;BME280;39642;47.556;18.728;2023-07-29T11:42:11;99190.75;;;25.46;48.60
51249;BME280;39642;47.556;18.728;2023-07-29T11:44:38;99184.72;;;25.44;48.60
51249;BME280;39642;47.556;18.728;2023-07-29T11:47:07;99183.59;;;25.46;48.57
51249;BME280;39642;47.556;18.728;2023-07-29T11:49:34;99188.09;;;25.46;48.60
51249;BME280;39642;47.556;18.728;2023-07-29T11:52:01;99180.09;;;25.46;48.60
51249;BME280;39642;47.556;18.728;2023-07-29T11:54:28;99180.09;;;25.46;48.59
51249;BME280;39642;47.556;18.728;2023-07-29T11:56:55;99180.09;;;25.46;48.57
51249;BME280;39642;47.556;18.728;2023-07-29T11:59:21;99173.81;;;25.47;48.49
51249;BME280;39642;47.556;18.728;2023-07-29T12:01:47;99178.84;;;25.50;48.46
51249;BME280;39642;47.556;18.728;2023-07-29T12:04:13;99176.06;;;25.51;48.44
51249;BME280;39642;47.556;18.728;2023-07-29T12:06:40;99161.84;;;25.51;48.44
51249;BME280;39642;47.556;18.728;2023-07-29T12:09:06;99165.41;;;25.51;48.44
51249;BME280;39642;47.556;18.728;2023-07-29T12:11:33;99164.69;;;25.49;48.48
51249;BME280;39642;47.556;18.728;2023-07-29T12:14:02;99160.31;;;25.48;48.54
51249;BME280;39642;47.556;18.728;2023-07-29T12:16:28;99160.47;;;25.47;48.57
51249;BME280;39642;47.556;18.728;2023-07-29T12:19:00;99158.06;;;25.44;48.60
51249;BME280;39642;47.556;18.728;2023-07-29T12:21:26;99157.09;;;25.45;48.62
51249;BME280;39642;47.556;18.728;2023-07-29T12:23:52;99149.22;;;25.43;48.63
51249;BME280;39642;47.556;18.728;2023-07-29T12:26:18;99155.41;;;25.44;48.64
51249;BME280;39642;47.556;18.728;2023-07-29T12:28:47;99158.22;;;25.42;48.65
51249;BME280;39642;47.556;18.728;2023-07-29T12:31:13;99160.03;;;25.42;48.69
51249;BME280;39642;47.556;18.728;2023-07-29T12:33:39;99156.38;;;25.43;48.65
51249;BME280;39642;47.556;18.728;2023-07-29T12:36:07;99154.56;;;25.43;48.67
51249;BME280;39642;47.556;18.728;2023-07-29T12:38:33;99145.56;;;25.44;48.65
51249;BME280;39642;47.556;18.728;2023-07-29T12:40:59;99143.06;;;25.43;48.68
51249;BME280;39642;47.556;18.728;2023-07-29T12:43:25;99136.91;;;25.42;48.68
51249;BME280;39642;47.556;18.728;2023-07-29T12:45:51;99142.22;;;25.42;48.71
51249;BME280;39642;47.556;18.728;2023-07-29T12:48:17;99141.34;;;25.42;48.73
51249;BME280;39642;47.556;18.728;2023-07-29T12:50:43;99147.69;;;25.41;48.74
51249;BME280;39642;47.556;18.728;2023-07-29T12:53:09;99146.69;;;25.42;48.72
51249;BME280;39642;47.556;18.728;2023-07-29T12:55:38;99140.53;;;25.41;48.74
51249;BME280;39642;47.556;18.728;2023-07-29T12:58:04;99136.91;;;25.42;48.71
51249;BME280;39642;47.556;18.728;2023-07-29T13:00:30;99127.06;;;25.43;48.68